Terminal Aerodrome Forecast
Issued by NWS Sioux Falls, SD

Home | Current Version | Previous Version | Text Only | Print | Product List | Glossary Off
Versions: 1 2 3 4 5 6 7 8 9 10 11 12 13 14 15

719
FTUS43 KFSD 242102 AAB
TAFFSD
TAF AMD
KFSD 242102Z 2421/2518 32009KT P6SM VCSH SCT090 BKN150
     FM242300 32008KT P6SM SCT100
     FM250200 VRB03KT P6SM SKC
     FM251600 19006KT P6SM SKC=

USA.gov is the U.S. government's official web portal to all federal, state and local government web resources and services.